createdAt,value
2017-11-07T00:00:50.387Z,0
2017-11-07T00:01:51.795Z,0
2017-11-07T00:02:53.208Z,0
2017-11-07T00:03:54.620Z,0
2017-11-07T00:05:01.762Z,0
2017-11-07T00:06:03.179Z,0
2017-11-07T00:07:04.612Z,0
2017-11-07T00:08:06.020Z,0
2017-11-07T00:09:07.432Z,0
2017-11-07T00:10:08.846Z,0
2017-11-07T00:11:10.269Z,0
2017-11-07T00:12:11.676Z,0
2017-11-07T00:13:13.092Z,0
2017-11-07T00:14:14.506Z,0
2017-11-07T00:15:15.916Z,0
2017-11-07T00:16:17.332Z,0
2017-11-07T00:17:18.752Z,0
2017-11-07T00:18:20.166Z,0
2017-11-07T00:19:21.579Z,0
2017-11-07T00:20:23.006Z,0
2017-11-07T00:21:24.411Z,0
2017-11-07T00:22:25.822Z,0
2017-11-07T00:23:27.234Z,0
2017-11-07T00:24:28.644Z,0
2017-11-07T00:25:30.046Z,0
2017-11-07T00:26:31.461Z,0
2017-11-07T00:27:32.872Z,0
2017-11-07T00:28:34.299Z,0
2017-11-07T00:29:35.716Z,0
2017-11-07T00:30:37.131Z,0
2017-11-07T00:31:38.552Z,0
2017-11-07T00:32:39.975Z,0
2017-11-07T00:33:41.381Z,0
2017-11-07T00:34:42.783Z,0
2017-11-07T00:35:44.197Z,0
2017-11-07T00:36:45.608Z,0
2017-11-07T00:37:47.022Z,0
2017-11-07T00:38:48.443Z,0
2017-11-07T00:39:49.866Z,0
2017-11-07T00:40:51.284Z,0
2017-11-07T00:41:52.698Z,0
2017-11-07T00:42:54.103Z,0
2017-11-07T00:43:55.522Z,0
2017-11-07T00:44:56.927Z,0
2017-11-07T00:45:58.333Z,0
2017-11-07T00:46:59.822Z,0
2017-11-07T00:48:01.234Z,0
2017-11-07T00:49:02.654Z,0
2017-11-07T00:50:04.065Z,0
2017-11-07T00:51:05.484Z,0
2017-11-07T00:52:06.893Z,0
2017-11-07T00:53:08.301Z,0
2017-11-07T00:54:09.726Z,0
2017-11-07T00:55:11.136Z,0
2017-11-07T00:56:12.548Z,0
2017-11-07T00:57:13.965Z,0
2017-11-07T00:58:15.380Z,0
2017-11-07T00:59:16.792Z,0
2017-11-07T01:00:18.204Z,0
2017-11-07T01:01:19.617Z,0
2017-11-07T01:02:21.043Z,0
2017-11-07T01:03:22.450Z,0
2017-11-07T01:04:23.862Z,0
2017-11-07T01:05:25.280Z,0
2017-11-07T01:06:26.695Z,0
2017-11-07T01:07:28.104Z,0
2017-11-07T01:08:29.520Z,0
2017-11-07T01:09:30.928Z,0
2017-11-07T01:10:32.344Z,0
2017-11-07T01:11:33.759Z,0
2017-11-07T01:12:35.174Z,0
2017-11-07T01:13:36.588Z,0
2017-11-07T01:14:37.993Z,0
2017-11-07T01:15:39.403Z,0
2017-11-07T01:16:40.817Z,0
2017-11-07T01:17:42.224Z,0
2017-11-07T01:18:43.634Z,0
2017-11-07T01:19:45.067Z,0
2017-11-07T01:20:46.471Z,0
2017-11-07T01:21:47.882Z,0
2017-11-07T01:22:49.296Z,0
2017-11-07T01:23:50.709Z,0
2017-11-07T01:24:52.116Z,0
2017-11-07T01:25:53.535Z,0
2017-11-07T01:26:54.951Z,0
2017-11-07T01:27:56.360Z,0
2017-11-07T01:28:57.772Z,0
2017-11-07T01:29:59.265Z,0
2017-11-07T01:31:00.640Z,0
2017-11-07T01:32:02.042Z,0
2017-11-07T01:33:03.470Z,0
2017-11-07T01:34:04.865Z,0
2017-11-07T01:35:06.277Z,0
2017-11-07T01:36:07.691Z,0
2017-11-07T01:37:09.106Z,0
2017-11-07T01:38:10.517Z,0
2017-11-07T01:39:11.931Z,0
2017-11-07T01:40:13.345Z,0
2017-11-07T01:41:14.757Z,0
2017-11-07T01:42:16.171Z,0
2017-11-07T01:43:17.584Z,0
2017-11-07T01:44:18.995Z,0
2017-11-07T01:45:20.418Z,0
2017-11-07T01:46:21.827Z,0
2017-11-07T01:47:23.242Z,0
2017-11-07T01:48:24.669Z,0
2017-11-07T01:49:26.088Z,0
2017-11-07T01:50:27.505Z,0
2017-11-07T01:51:28.913Z,0
2017-11-07T01:52:30.317Z,0
2017-11-07T01:53:31.727Z,0
2017-11-07T01:54:33.142Z,0
2017-11-07T01:55:34.561Z,0
2017-11-07T01:56:35.970Z,0
2017-11-07T01:57:37.383Z,0
2017-11-07T01:58:38.794Z,0
2017-11-07T01:59:40.203Z,0
2017-11-07T02:00:41.692Z,0
2017-11-07T02:01:43.113Z,0
2017-11-07T02:02:44.526Z,0
2017-11-07T02:03:45.944Z,0
2017-11-07T02:04:47.359Z,0
2017-11-07T02:05:48.781Z,0
2017-11-07T02:06:50.183Z,0
2017-11-07T02:07:51.602Z,0
2017-11-07T02:08:53.033Z,0
2017-11-07T02:09:54.446Z,0
2017-11-07T02:10:55.851Z,0
2017-11-07T02:11:57.259Z,0
2017-11-07T02:12:58.677Z,0
2017-11-07T02:14:00.083Z,0
2017-11-07T02:15:01.492Z,0
2017-11-07T02:16:02.904Z,0
2017-11-07T02:17:04.319Z,0
2017-11-07T02:18:05.738Z,0
2017-11-07T02:19:07.149Z,0
2017-11-07T02:20:08.565Z,0
2017-11-07T02:21:09.978Z,0
2017-11-07T02:22:11.382Z,0
2017-11-07T02:23:12.793Z,0
2017-11-07T02:24:14.203Z,0
2017-11-07T02:25:15.626Z,0
2017-11-07T02:26:17.044Z,0
2017-11-07T02:27:18.461Z,0
2017-11-07T02:28:19.879Z,0
2017-11-07T02:29:21.280Z,0
2017-11-07T02:30:22.691Z,0
2017-11-07T02:31:24.109Z,0
2017-11-07T02:32:25.616Z,0
2017-11-07T02:33:27.029Z,0
2017-11-07T02:34:28.441Z,0
2017-11-07T02:35:29.848Z,0
2017-11-07T02:36:31.261Z,0
2017-11-07T02:37:32.662Z,0
2017-11-07T02:38:34.125Z,0
2017-11-07T02:39:35.530Z,0
2017-11-07T02:40:36.937Z,0
2017-11-07T02:41:38.348Z,0
2017-11-07T02:42:39.762Z,0
2017-11-07T02:43:41.173Z,0
2017-11-07T02:44:42.584Z,0
2017-11-07T02:45:43.992Z,0
2017-11-07T02:46:45.402Z,0
2017-11-07T02:47:46.810Z,0
2017-11-07T02:48:48.235Z,0
2017-11-07T02:49:49.642Z,0
2017-11-07T02:50:51.042Z,0
2017-11-07T02:51:52.452Z,0
2017-11-07T02:52:53.862Z,0
2017-11-07T02:53:55.271Z,0
2017-11-07T02:54:56.685Z,20
2017-11-07T02:55:58.139Z,20
2017-11-07T02:56:59.552Z,16
2017-11-07T02:58:00.970Z,16
2017-11-07T02:59:02.383Z,16
2017-11-07T03:00:03.804Z,16
2017-11-07T03:01:05.224Z,16
2017-11-07T03:02:06.635Z,16
2017-11-07T03:03:08.092Z,16
2017-11-07T03:04:09.506Z,12
2017-11-07T03:05:10.923Z,16
2017-11-07T03:06:12.338Z,12
2017-11-07T03:07:13.749Z,0
2017-11-07T03:08:15.174Z,0
2017-11-07T03:09:16.591Z,0
2017-11-07T03:10:18.110Z,0
2017-11-07T03:11:19.523Z,0
2017-11-07T03:12:20.940Z,0
2017-11-07T03:13:22.351Z,0
2017-11-07T03:14:23.765Z,0
2017-11-07T03:15:25.182Z,0
2017-11-07T03:16:26.677Z,0
2017-11-07T03:17:28.086Z,0
2017-11-07T03:18:29.507Z,0
2017-11-07T03:19:30.922Z,0
2017-11-07T03:20:32.336Z,0
2017-11-07T03:21:33.746Z,0
2017-11-07T03:22:35.157Z,0
2017-11-07T03:23:36.568Z,0
2017-11-07T03:24:37.981Z,0
2017-11-07T03:25:39.393Z,0
2017-11-07T03:26:40.804Z,0
2017-11-07T03:27:42.225Z,16
2017-11-07T03:28:43.644Z,16
2017-11-07T03:29:45.059Z,16
2017-11-07T03:30:46.470Z,16
2017-11-07T03:31:47.884Z,16
2017-11-07T03:32:49.296Z,16
2017-11-07T03:33:50.713Z,16
2017-11-07T03:34:52.087Z,16
2017-11-07T03:35:53.502Z,12
2017-11-07T03:36:54.915Z,16
2017-11-07T03:37:56.328Z,12
2017-11-07T03:38:57.744Z,12
2017-11-07T03:39:59.157Z,12
2017-11-07T03:41:00.597Z,16
2017-11-07T03:42:02.006Z,16
2017-11-07T03:43:03.424Z,16
2017-11-07T03:44:04.836Z,16
2017-11-07T03:45:06.260Z,16
2017-11-07T03:46:07.674Z,16
2017-11-07T03:47:09.082Z,16
2017-11-07T03:48:10.498Z,16
2017-11-07T03:49:11.904Z,16
2017-11-07T03:50:13.316Z,16
2017-11-07T03:51:14.736Z,16
2017-11-07T03:52:16.147Z,16
2017-11-07T03:53:17.558Z,16
2017-11-07T03:54:18.980Z,16
2017-11-07T03:55:20.389Z,16
2017-11-07T03:56:21.804Z,16
2017-11-07T03:57:23.214Z,16
2017-11-07T03:58:24.623Z,16
2017-11-07T03:59:26.037Z,12
2017-11-07T04:00:27.448Z,12
2017-11-07T04:01:28.853Z,12
2017-11-07T04:02:30.272Z,12
2017-11-07T04:03:31.684Z,12
2017-11-07T04:04:33.097Z,12
2017-11-07T04:05:34.515Z,12
2017-11-07T04:06:35.932Z,12
2017-11-07T04:07:37.357Z,12
2017-11-07T04:08:38.776Z,12
2017-11-07T04:09:40.190Z,12
2017-11-07T04:10:41.603Z,12
2017-11-07T04:11:43.022Z,12
2017-11-07T04:12:44.446Z,12
2017-11-07T04:13:45.856Z,12
2017-11-07T04:14:47.265Z,12
2017-11-07T04:15:48.676Z,12
2017-11-07T04:16:50.097Z,12
2017-11-07T04:17:51.508Z,12
2017-11-07T04:18:52.918Z,16
2017-11-07T04:19:54.335Z,12
2017-11-07T04:20:55.745Z,16
2017-11-07T04:21:57.120Z,12
2017-11-07T04:22:58.533Z,12
2017-11-07T04:24:00.046Z,16
2017-11-07T04:25:01.454Z,12
2017-11-07T04:26:02.867Z,16
2017-11-07T04:27:04.285Z,12
2017-11-07T04:28:05.695Z,16
2017-11-07T04:29:07.106Z,12
2017-11-07T04:30:08.522Z,12
2017-11-07T04:31:09.941Z,16
2017-11-07T04:32:11.348Z,0
2017-11-07T04:33:12.760Z,0
2017-11-07T04:34:14.168Z,0
2017-11-07T04:35:15.584Z,0
2017-11-07T04:36:16.991Z,0
2017-11-07T04:37:18.407Z,0
2017-11-07T04:38:19.820Z,12
2017-11-07T04:39:21.230Z,12
2017-11-07T04:40:22.646Z,12
2017-11-07T04:41:24.053Z,12
2017-11-07T04:42:25.464Z,0
2017-11-07T04:43:26.874Z,0
2017-11-07T04:44:28.286Z,0
2017-11-07T04:45:29.691Z,0
2017-11-07T04:46:31.098Z,0
2017-11-07T04:47:32.510Z,0
2017-11-07T04:48:33.936Z,0
2017-11-07T04:49:35.351Z,0
2017-11-07T04:50:36.757Z,0
2017-11-07T04:51:38.173Z,0
2017-11-07T04:52:39.589Z,0
2017-11-07T04:53:40.995Z,0
2017-11-07T04:54:42.414Z,0
2017-11-07T04:55:43.836Z,0
2017-11-07T04:56:45.242Z,0
2017-11-07T04:57:46.654Z,0
2017-11-07T04:58:48.080Z,0
2017-11-07T04:59:49.493Z,0
2017-11-07T05:00:50.915Z,0
2017-11-07T05:01:53.265Z,0
2017-11-07T05:02:54.689Z,0
2017-11-07T05:03:56.099Z,0
2017-11-07T05:04:57.517Z,0
2017-11-07T05:05:58.938Z,0
2017-11-07T05:07:00.353Z,0
2017-11-07T05:08:01.769Z,0
2017-11-07T05:09:03.179Z,0
2017-11-07T05:10:04.588Z,0
2017-11-07T05:11:06.011Z,0
2017-11-07T05:12:07.424Z,0
2017-11-07T05:13:08.856Z,0
2017-11-07T05:14:10.261Z,0
2017-11-07T05:15:11.670Z,0
2017-11-07T05:16:13.084Z,0
2017-11-07T05:17:14.492Z,0
2017-11-07T05:18:15.901Z,0
2017-11-07T05:19:17.319Z,0
2017-11-07T05:20:18.737Z,0
2017-11-07T05:21:20.144Z,0
2017-11-07T05:22:21.557Z,0
2017-11-07T05:23:22.964Z,0
2017-11-07T05:24:24.375Z,0
2017-11-07T05:25:25.780Z,0
2017-11-07T05:26:27.186Z,0
2017-11-07T05:27:28.602Z,0
2017-11-07T05:28:30.020Z,0
2017-11-07T05:29:31.427Z,0
2017-11-07T05:30:32.835Z,0
2017-11-07T05:31:34.345Z,0
2017-11-07T05:32:35.760Z,0
2017-11-07T05:33:37.176Z,0
2017-11-07T05:34:38.582Z,0
2017-11-07T05:35:40.000Z,0
2017-11-07T05:36:41.401Z,0
2017-11-07T05:37:42.821Z,0
2017-11-07T05:38:44.237Z,0
2017-11-07T05:39:45.647Z,0
2017-11-07T05:40:47.060Z,0
2017-11-07T05:41:48.480Z,0
2017-11-07T05:42:49.892Z,0
2017-11-07T05:43:51.308Z,0
2017-11-07T05:44:52.722Z,0
2017-11-07T05:45:54.129Z,0
2017-11-07T05:46:55.546Z,0
2017-11-07T05:47:56.968Z,0
2017-11-07T05:48:58.380Z,0
2017-11-07T05:49:59.801Z,0
2017-11-07T05:51:01.214Z,0
2017-11-07T05:52:02.626Z,0
2017-11-07T05:53:04.080Z,0
2017-11-07T05:54:05.493Z,0
2017-11-07T05:55:06.897Z,0
2017-11-07T05:56:08.311Z,0
2017-11-07T05:57:09.850Z,0
2017-11-07T05:58:11.256Z,0
2017-11-07T05:59:12.668Z,0
2017-11-07T06:00:14.072Z,0
2017-11-07T06:01:15.492Z,0
2017-11-07T06:02:16.907Z,0
2017-11-07T06:03:18.276Z,0
2017-11-07T06:04:19.682Z,0
2017-11-07T06:05:21.092Z,0
2017-11-07T06:06:22.504Z,0
2017-11-07T06:07:23.963Z,0
2017-11-07T06:08:25.359Z,0
2017-11-07T06:09:26.849Z,0
2017-11-07T06:10:28.261Z,0
2017-11-07T06:11:29.674Z,0
2017-11-07T06:12:31.086Z,0
2017-11-07T06:13:32.499Z,0
2017-11-07T06:14:33.910Z,0
2017-11-07T06:15:35.323Z,0
2017-11-07T06:16:36.734Z,4
2017-11-07T06:17:38.142Z,0
2017-11-07T06:18:39.553Z,0
2017-11-07T06:19:40.970Z,4
2017-11-07T06:20:42.383Z,0
2017-11-07T06:21:43.793Z,4
2017-11-07T06:22:45.211Z,4
2017-11-07T06:23:46.619Z,8
2017-11-07T06:24:48.036Z,8
2017-11-07T06:25:49.447Z,8
2017-11-07T06:26:50.869Z,8
2017-11-07T06:27:52.277Z,8
2017-11-07T06:28:53.687Z,12
2017-11-07T06:29:55.097Z,12
2017-11-07T06:30:56.519Z,16
2017-11-07T06:31:57.937Z,16
2017-11-07T06:32:59.350Z,16
2017-11-07T06:34:00.770Z,20
2017-11-07T06:35:02.179Z,20
2017-11-07T06:36:03.592Z,24
2017-11-07T06:37:05.002Z,20
2017-11-07T06:38:06.416Z,28
2017-11-07T06:39:07.833Z,28
2017-11-07T06:40:09.314Z,32
2017-11-07T06:41:10.723Z,32
2017-11-07T06:42:12.136Z,36
2017-11-07T06:43:13.550Z,36
2017-11-07T06:44:14.916Z,40
2017-11-07T06:45:16.324Z,44
2017-11-07T06:46:17.731Z,44
2017-11-07T06:47:19.148Z,48
2017-11-07T06:48:20.574Z,52
2017-11-07T06:49:21.998Z,52
2017-11-07T06:50:23.410Z,56
2017-11-07T06:51:24.820Z,60
2017-11-07T06:52:26.237Z,64
2017-11-07T06:53:27.648Z,68
2017-11-07T06:54:29.061Z,72
2017-11-07T06:55:30.480Z,76
2017-11-07T06:56:31.892Z,80
2017-11-07T06:57:33.299Z,88
2017-11-07T06:58:34.714Z,92
2017-11-07T06:59:36.129Z,96
2017-11-07T07:00:37.542Z,96
2017-11-07T07:01:38.952Z,104
2017-11-07T07:02:40.371Z,108
2017-11-07T07:03:41.780Z,116
2017-11-07T07:04:43.198Z,120
2017-11-07T07:05:44.617Z,128
2017-11-07T07:06:46.040Z,128
2017-11-07T07:07:47.458Z,132
2017-11-07T07:08:48.868Z,140
2017-11-07T07:09:50.283Z,144
2017-11-07T07:10:51.755Z,148
2017-11-07T07:11:53.167Z,148
2017-11-07T07:12:54.579Z,156
2017-11-07T07:13:56.003Z,156
2017-11-07T07:14:57.406Z,160
2017-11-07T07:15:58.830Z,164
2017-11-07T07:17:00.244Z,172
2017-11-07T07:18:01.670Z,192
2017-11-07T07:19:03.085Z,212
2017-11-07T07:20:04.502Z,228
2017-11-07T07:21:05.916Z,240
2017-11-07T07:22:07.337Z,248
2017-11-07T07:23:08.738Z,236
2017-11-07T07:24:10.158Z,228
2017-11-07T07:25:11.574Z,224
2017-11-07T07:26:12.987Z,224
2017-11-07T07:27:14.396Z,236
2017-11-07T07:28:15.808Z,240
2017-11-07T07:29:17.220Z,248
2017-11-07T07:30:18.668Z,272
2017-11-07T07:31:20.076Z,276
2017-11-07T07:32:21.485Z,268
2017-11-07T07:33:22.898Z,260
2017-11-07T07:34:24.324Z,268
2017-11-07T07:35:25.737Z,284
2017-11-07T07:36:27.146Z,304
2017-11-07T07:37:28.558Z,316
2017-11-07T07:38:29.990Z,296
2017-11-07T07:39:31.420Z,296
2017-11-07T07:40:32.842Z,292
2017-11-07T07:41:34.254Z,316
2017-11-07T07:42:35.668Z,316
2017-11-07T07:43:37.090Z,340
2017-11-07T07:44:38.500Z,340
2017-11-07T07:45:39.910Z,336
2017-11-07T07:46:41.322Z,384
2017-11-07T07:47:42.729Z,380
2017-11-07T07:48:44.146Z,416
2017-11-07T07:49:45.568Z,428
2017-11-07T07:50:46.980Z,464
2017-11-07T07:51:48.406Z,480
2017-11-07T07:52:49.826Z,516
2017-11-07T07:53:51.244Z,524
2017-11-07T07:54:52.654Z,504
2017-11-07T07:55:54.091Z,512
2017-11-07T07:56:55.506Z,572
2017-11-07T07:57:56.932Z,512
2017-11-07T07:58:58.338Z,520
2017-11-07T07:59:59.746Z,580
2017-11-07T08:01:01.166Z,596
2017-11-07T08:02:02.578Z,624
2017-11-07T08:03:03.985Z,652
2017-11-07T08:04:05.410Z,652
2017-11-07T08:05:06.827Z,632
2017-11-07T08:06:08.237Z,608
2017-11-07T08:07:09.647Z,608
2017-11-07T08:08:11.029Z,604
2017-11-07T08:09:12.455Z,660
2017-11-07T08:10:13.877Z,608
2017-11-07T08:11:15.287Z,648
2017-11-07T08:12:16.719Z,588
2017-11-07T08:13:18.160Z,536
2017-11-07T08:14:19.573Z,552
2017-11-07T08:15:20.994Z,620
2017-11-07T08:16:22.407Z,708
2017-11-07T08:17:23.816Z,648
2017-11-07T08:18:25.236Z,668
2017-11-07T08:19:26.700Z,644
2017-11-07T08:20:28.115Z,692
2017-11-07T08:21:29.536Z,692
2017-11-07T08:22:30.953Z,724
2017-11-07T08:23:32.362Z,36
2017-11-07T08:24:33.773Z,36
2017-11-07T08:25:35.146Z,32
2017-11-07T08:26:36.552Z,32
2017-11-07T08:27:37.973Z,32
2017-11-07T08:28:39.377Z,32
2017-11-07T08:29:40.784Z,32
2017-11-07T08:30:42.204Z,32
2017-11-07T08:31:43.621Z,28
2017-11-07T08:32:45.029Z,28
2017-11-07T08:33:46.438Z,32
2017-11-07T08:34:47.854Z,28
2017-11-07T08:35:49.275Z,28
2017-11-07T08:36:50.694Z,24
2017-11-07T08:37:52.102Z,32
2017-11-07T08:38:53.519Z,32
2017-11-07T08:39:54.939Z,36
2017-11-07T08:40:56.349Z,40
2017-11-07T08:41:57.765Z,36
2017-11-07T08:42:59.178Z,40
2017-11-07T08:44:00.595Z,44
2017-11-07T08:45:02.006Z,52
2017-11-07T08:46:03.426Z,48
2017-11-07T08:47:04.833Z,64
2017-11-07T08:48:06.244Z,56
2017-11-07T08:49:07.664Z,52
2017-11-07T08:50:09.077Z,52
2017-11-07T08:51:10.489Z,52
2017-11-07T08:52:11.905Z,56
2017-11-07T08:53:13.322Z,44
2017-11-07T08:54:14.734Z,44
2017-11-07T08:55:16.159Z,44
2017-11-07T08:56:17.594Z,44
2017-11-07T08:57:18.999Z,40
2017-11-07T08:58:20.413Z,40
2017-11-07T08:59:21.824Z,36
2017-11-07T09:00:23.244Z,40
2017-11-07T09:01:24.656Z,44
2017-11-07T09:02:26.125Z,704
2017-11-07T09:03:27.544Z,1072
2017-11-07T09:04:28.953Z,1288
2017-11-07T09:05:30.378Z,1404
2017-11-07T09:06:31.797Z,1444
2017-11-07T09:07:33.219Z,1332
2017-11-07T09:08:34.643Z,1432
2017-11-07T09:09:36.081Z,1304
2017-11-07T09:10:37.506Z,1232
2017-11-07T09:11:38.915Z,1220
2017-11-07T09:12:40.343Z,984
2017-11-07T09:13:41.742Z,1448
2017-11-07T09:14:43.170Z,1476
2017-11-07T09:15:44.581Z,1316
2017-11-07T09:16:45.999Z,1236
2017-11-07T09:17:47.408Z,1284
2017-11-07T09:18:48.822Z,1164
2017-11-07T09:19:50.240Z,1036
2017-11-07T09:20:51.664Z,832
2017-11-07T09:21:53.091Z,784
2017-11-07T09:22:54.502Z,752
2017-11-07T09:23:55.916Z,756
2017-11-07T09:24:57.335Z,784
2017-11-07T09:25:58.755Z,796
2017-11-07T09:27:00.165Z,788
2017-11-07T09:28:01.585Z,796
2017-11-07T09:29:03.004Z,732
2017-11-07T09:30:04.419Z,732
2017-11-07T09:31:05.830Z,740
2017-11-07T09:32:07.245Z,812
2017-11-07T09:33:08.673Z,864
2017-11-07T09:34:10.084Z,928
2017-11-07T09:35:11.499Z,1000
2017-11-07T09:36:12.922Z,1084
2017-11-07T09:37:14.350Z,1136
2017-11-07T09:38:15.772Z,1176
2017-11-07T09:39:17.190Z,1224
2017-11-07T09:40:18.616Z,1208
2017-11-07T09:41:20.032Z,1208
2017-11-07T09:42:21.446Z,1288
2017-11-07T09:43:22.858Z,1420
2017-11-07T09:44:24.278Z,1520
2017-11-07T09:45:25.685Z,1624
2017-11-07T09:46:27.110Z,1708
2017-11-07T09:47:28.575Z,1752
2017-11-07T09:48:30.001Z,1784
2017-11-07T09:49:31.422Z,1808
2017-11-07T09:50:32.833Z,1840
2017-11-07T09:51:34.246Z,1856
2017-11-07T09:52:35.665Z,1868
2017-11-07T09:53:37.098Z,1928
2017-11-07T09:54:38.502Z,2052
2017-11-07T09:55:39.924Z,2220
2017-11-07T09:56:41.357Z,2316
2017-11-07T09:57:42.768Z,2328
2017-11-07T09:58:44.184Z,2376
2017-11-07T09:59:45.612Z,2380
2017-11-07T10:00:47.014Z,2312
2017-11-07T10:01:48.429Z,2296
2017-11-07T10:02:49.835Z,2268
2017-11-07T10:03:51.251Z,2252
2017-11-07T10:04:52.670Z,2116
2017-11-07T10:05:54.089Z,1896
2017-11-07T10:06:55.512Z,1720
2017-11-07T10:07:56.927Z,1628
2017-11-07T10:08:58.349Z,1588
2017-11-07T10:09:59.772Z,1640
2017-11-07T10:11:01.183Z,1556
2017-11-07T10:12:02.607Z,1508
2017-11-07T10:13:04.025Z,1312
2017-11-07T10:14:05.441Z,1180
2017-11-07T10:15:06.859Z,932
2017-11-07T10:16:08.274Z,840
2017-11-07T10:17:09.687Z,840
2017-11-07T10:18:11.105Z,840
2017-11-07T10:19:12.520Z,908
2017-11-07T10:20:13.950Z,1020
2017-11-07T10:21:15.367Z,1200
2017-11-07T10:22:16.787Z,1484
2017-11-07T10:23:18.214Z,1820
2017-11-07T10:24:19.634Z,2024
2017-11-07T10:25:21.062Z,2176
2017-11-07T10:26:22.481Z,2284
2017-11-07T10:27:23.904Z,2348
2017-11-07T10:28:25.321Z,2328
2017-11-07T10:29:26.737Z,2304
2017-11-07T10:30:28.149Z,2348
2017-11-07T10:31:29.574Z,2348
2017-11-07T10:32:30.996Z,2352
2017-11-07T10:33:32.429Z,2352
2017-11-07T10:34:33.841Z,2264
2017-11-07T10:35:35.266Z,2084
2017-11-07T10:36:36.689Z,1916
2017-11-07T10:37:38.119Z,1740
2017-11-07T10:38:39.537Z,1616
2017-11-07T10:39:40.961Z,1484
2017-11-07T10:40:42.378Z,1324
2017-11-07T10:41:43.794Z,1288
2017-11-07T10:42:45.208Z,1376
2017-11-07T10:43:46.639Z,1348
2017-11-07T10:44:48.052Z,1416
2017-11-07T10:45:49.468Z,1580
2017-11-07T10:46:50.887Z,1836
2017-11-07T10:47:52.304Z,2084
2017-11-07T10:48:53.727Z,2244
2017-11-07T10:49:55.145Z,2300
2017-11-07T10:50:56.565Z,2184
2017-11-07T10:51:57.983Z,2000
2017-11-07T10:52:59.391Z,1884
2017-11-07T10:54:00.817Z,1876
2017-11-07T10:55:02.235Z,1664
2017-11-07T10:56:03.648Z,1576
2017-11-07T10:57:05.072Z,1520
2017-11-07T10:58:06.489Z,1584
2017-11-07T10:59:07.908Z,2080
2017-11-07T11:00:09.338Z,2876
2017-11-07T11:01:10.757Z,3564
2017-11-07T11:02:12.181Z,3668
2017-11-07T11:03:13.645Z,3528
2017-11-07T11:04:15.057Z,3360
2017-11-07T11:05:16.482Z,3024
2017-11-07T11:06:17.907Z,2964
2017-11-07T11:07:19.330Z,2828
2017-11-07T11:08:20.730Z,2504
2017-11-07T11:09:22.161Z,2332
2017-11-07T11:10:23.624Z,2356
2017-11-07T11:11:25.044Z,1892
2017-11-07T11:12:26.467Z,2080
2017-11-07T11:13:27.889Z,2656
2017-11-07T11:14:29.306Z,2568
2017-11-07T11:15:30.721Z,2104
2017-11-07T11:16:32.135Z,2188
2017-11-07T11:17:33.556Z,2116
2017-11-07T11:18:34.976Z,2148
2017-11-07T11:19:36.396Z,2272
2017-11-07T11:20:37.815Z,2212
2017-11-07T11:21:39.231Z,2204
2017-11-07T11:22:40.665Z,2324
2017-11-07T11:23:42.095Z,2296
2017-11-07T11:24:43.514Z,2452
2017-11-07T11:25:44.937Z,2496
2017-11-07T11:26:46.354Z,2508
2017-11-07T11:27:47.778Z,2488
2017-11-07T11:28:49.196Z,2424
2017-11-07T11:29:50.617Z,676
2017-11-07T11:30:52.039Z,696
2017-11-07T11:31:53.465Z,676
2017-11-07T11:32:54.871Z,696
2017-11-07T11:33:56.306Z,672
2017-11-07T11:34:57.718Z,668
2017-11-07T11:35:59.140Z,648
2017-11-07T11:37:00.565Z,664
2017-11-07T11:38:01.978Z,680
2017-11-07T11:39:03.400Z,692
2017-11-07T11:40:04.829Z,800
2017-11-07T11:41:06.250Z,952
2017-11-07T11:42:07.667Z,756
2017-11-07T11:43:09.087Z,232
2017-11-07T11:44:10.509Z,240
2017-11-07T11:45:11.938Z,232
2017-11-07T11:46:13.369Z,284
2017-11-07T11:47:17.040Z,288
2017-11-07T11:48:18.464Z,304
2017-11-07T11:49:19.891Z,300
2017-11-07T11:50:21.319Z,300
2017-11-07T11:51:22.739Z,300
2017-11-07T11:52:24.161Z,328
2017-11-07T11:53:25.588Z,312
2017-11-07T11:54:26.996Z,300
2017-11-07T11:55:28.410Z,300
2017-11-07T11:56:29.838Z,320
2017-11-07T11:57:31.258Z,340
2017-11-07T11:58:32.682Z,344
2017-11-07T11:59:34.093Z,360
2017-11-07T12:00:35.507Z,376
2017-11-07T12:01:36.926Z,396
2017-11-07T12:02:38.343Z,404
2017-11-07T12:03:39.765Z,344
2017-11-07T12:04:41.188Z,428
2017-11-07T12:05:42.608Z,352
2017-11-07T12:06:44.079Z,600
2017-11-07T12:07:45.501Z,852
2017-11-07T12:08:46.917Z,764
2017-11-07T12:09:48.338Z,776
2017-11-07T12:10:49.773Z,828
2017-11-07T12:11:51.187Z,720
2017-11-07T12:12:52.606Z,1212
2017-11-07T12:13:54.028Z,1284
2017-11-07T12:14:55.459Z,1500
2017-11-07T12:15:56.876Z,1440
2017-11-07T12:16:58.306Z,1412
2017-11-07T12:17:59.731Z,1616
2017-11-07T12:19:01.149Z,1752
2017-11-07T12:20:02.584Z,1724
2017-11-07T12:21:04.007Z,1808
2017-11-07T12:22:05.424Z,1944
2017-11-07T12:23:06.910Z,2136
2017-11-07T12:24:08.331Z,2200
2017-11-07T12:25:09.758Z,2308
2017-11-07T12:26:11.165Z,2388
2017-11-07T12:27:12.596Z,2476
2017-11-07T12:28:14.026Z,2404
2017-11-07T12:29:15.454Z,2700
2017-11-07T12:30:16.879Z,2688
2017-11-07T12:31:18.290Z,2680
2017-11-07T12:32:19.715Z,2732
2017-11-07T12:33:21.139Z,2708
2017-11-07T12:34:22.562Z,2588
2017-11-07T12:35:23.989Z,2636
2017-11-07T12:36:25.412Z,2624
2017-11-07T12:37:26.846Z,2620
2017-11-07T12:38:28.268Z,2608
2017-11-07T12:39:29.700Z,2516
2017-11-07T12:40:31.121Z,2516
2017-11-07T12:41:32.549Z,2368
2017-11-07T12:42:33.981Z,2424
2017-11-07T12:43:35.401Z,2564
2017-11-07T12:44:36.828Z,2012
2017-11-07T12:45:38.249Z,880
2017-11-07T12:46:39.668Z,376
2017-11-07T12:47:41.089Z,196
2017-11-07T12:48:42.518Z,136
2017-11-07T12:49:43.948Z,140
2017-11-07T12:50:45.373Z,136
2017-11-07T12:51:46.795Z,136
2017-11-07T12:52:48.215Z,120
2017-11-07T12:53:49.639Z,112
2017-11-07T12:54:51.057Z,108
2017-11-07T12:55:52.477Z,100
2017-11-07T12:56:53.896Z,92
2017-11-07T12:57:55.316Z,84
2017-11-07T12:58:56.761Z,76
2017-11-07T12:59:58.189Z,72
2017-11-07T13:00:59.606Z,72
2017-11-07T13:02:01.020Z,68
2017-11-07T13:03:02.449Z,64
2017-11-07T13:04:03.876Z,60
2017-11-07T13:05:05.286Z,64
2017-11-07T13:06:06.706Z,60
2017-11-07T13:07:08.124Z,64
2017-11-07T13:08:09.545Z,64
2017-11-07T13:09:10.966Z,64
2017-11-07T13:10:12.395Z,64
2017-11-07T13:11:13.813Z,64
2017-11-07T13:12:15.237Z,60
2017-11-07T13:13:16.662Z,56
2017-11-07T13:14:18.082Z,60
2017-11-07T13:15:19.489Z,52
2017-11-07T13:16:20.900Z,48
2017-11-07T13:17:22.327Z,44
2017-11-07T13:18:23.748Z,40
2017-11-07T13:19:25.168Z,40
2017-11-07T13:20:26.590Z,36
2017-11-07T13:21:28.021Z,36
2017-11-07T13:22:29.436Z,36
2017-11-07T13:23:30.850Z,32
2017-11-07T13:24:32.269Z,32
2017-11-07T13:25:33.681Z,28
2017-11-07T13:26:35.110Z,32
2017-11-07T13:27:36.535Z,32
2017-11-07T13:28:37.963Z,32
2017-11-07T13:29:39.339Z,28
2017-11-07T13:30:40.754Z,28
2017-11-07T13:31:42.169Z,24
2017-11-07T13:32:43.585Z,12
2017-11-07T13:33:45.003Z,24
2017-11-07T13:34:46.427Z,24
2017-11-07T13:35:47.846Z,16
2017-11-07T13:36:49.277Z,20
2017-11-07T13:37:50.705Z,28
2017-11-07T13:38:52.125Z,32
2017-11-07T13:39:53.558Z,32
2017-11-07T13:40:55.044Z,32
2017-11-07T13:41:56.479Z,28
2017-11-07T13:42:57.902Z,28
2017-11-07T13:43:59.326Z,28
2017-11-07T13:45:00.755Z,28
2017-11-07T13:46:02.180Z,32
2017-11-07T13:47:03.601Z,32
2017-11-07T13:48:05.029Z,32
2017-11-07T13:49:06.448Z,32
2017-11-07T13:50:07.838Z,32
2017-11-07T13:51:09.255Z,28
2017-11-07T13:52:10.677Z,28
2017-11-07T13:53:12.102Z,28
2017-11-07T13:54:13.510Z,28
2017-11-07T13:55:14.946Z,32
2017-11-07T13:56:16.361Z,32
2017-11-07T13:57:17.787Z,36
2017-11-07T13:58:19.198Z,36
2017-11-07T13:59:20.621Z,32
2017-11-07T14:00:22.046Z,36
2017-11-07T14:01:23.480Z,32
2017-11-07T14:02:24.893Z,32
2017-11-07T14:03:26.308Z,28
2017-11-07T14:04:27.719Z,32
2017-11-07T14:05:29.135Z,32
2017-11-07T14:06:30.551Z,28
2017-11-07T14:07:31.971Z,32
2017-11-07T14:08:33.390Z,28
2017-11-07T14:09:34.818Z,32
2017-11-07T14:10:36.249Z,28
2017-11-07T14:11:37.687Z,28
2017-11-07T14:12:39.084Z,28
2017-11-07T14:13:40.590Z,28
2017-11-07T14:14:42.035Z,28
2017-11-07T14:15:43.452Z,28
2017-11-07T14:16:44.872Z,24
2017-11-07T14:17:46.291Z,16
2017-11-07T14:18:47.716Z,24
2017-11-07T14:19:49.136Z,24
2017-11-07T14:20:50.609Z,24
2017-11-07T14:21:52.025Z,20
2017-11-07T14:22:53.439Z,20
2017-11-07T14:23:54.859Z,20
2017-11-07T14:24:56.283Z,24
2017-11-07T14:25:57.718Z,24
2017-11-07T14:26:59.136Z,24
2017-11-07T14:28:00.562Z,24
2017-11-07T14:29:01.989Z,20
2017-11-07T14:30:03.405Z,20